Time;durP1;ratioP1;P1;durP2;ratioP2;P2;SDS_P1;SDS_P2;PMS_P1;PMS_P2;Temp;Humidity;BMP_temperature;BMP_pressure;BME280_temperature;BME280_humidity;BME280_pressure;Samples;Min_cycle;Max_cycle;Signal;HPM_P1;HPM_P2
2023/01/06 00:02:12;;;;;;;65.47;33.70;;;;;;;-142.25;100.00;58004.16;5040528;28;21111;-71
2023/01/06 00:04:38;;;;;;;55.33;31.63;;;;;;;-142.25;100.00;58004.16;5039502;28;20147;-71
2023/01/06 00:07:04;;;;;;;56.35;31.85;;;;;;;-142.25;100.00;58004.16;5035627;28;20045;-72
2023/01/06 00:09:29;;;;;;;57.80;31.73;;;;;;;-142.25;100.00;58004.16;5037367;28;20052;-71
2023/01/06 00:11:55;;;;;;;57.83;31.98;;;;;;;-142.25;100.00;58004.16;5038425;28;20029;-71
2023/01/06 00:14:21;;;;;;;57.22;31.92;;;;;;;-142.25;100.00;58004.16;5036849;28;20043;-71
2023/01/06 00:16:46;;;;;;;57.47;32.13;;;;;;;-142.25;100.00;58004.16;5039283;28;20453;-71
2023/01/06 00:19:12;;;;;;;55.85;31.40;;;;;;;-142.25;100.00;58004.16;5038703;28;20069;-70
2023/01/06 00:21:37;;;;;;;54.95;30.98;;;;;;;-142.25;100.00;58004.16;5039797;28;20045;-71
2023/01/06 00:24:03;;;;;;;54.53;30.92;;;;;;;-142.25;100.00;58004.16;5045533;28;20521;-71
2023/01/06 00:26:29;;;;;;;55.03;31.42;;;;;;;-142.25;100.00;58004.16;5039668;28;20048;-72
2023/01/06 00:28:56;;;;;;;58.37;32.00;;;;;;;-142.25;100.00;58004.16;5054958;28;20045;-71
2023/01/06 00:31:21;;;;;;;59.40;32.73;;;;;;;-142.25;100.00;58004.16;5037329;28;20052;-70
2023/01/06 00:33:47;;;;;;;57.70;31.90;;;;;;;-142.25;100.00;58004.16;5037660;28;20748;-70
2023/01/06 00:36:13;;;;;;;65.93;33.75;;;;;;;-142.25;100.00;58004.16;5038277;28;20033;-70
2023/01/06 00:38:39;;;;;;;60.67;33.47;;;;;;;-142.25;100.00;58004.16;5039897;28;20060;-70
2023/01/06 00:42:02;;;;;;;63.00;34.13;;;;;;;-142.25;100.00;58004.16;5047112;28;20052;-73
2023/01/06 00:43:55;;;;;;;48.20;30.50;;;;;;;-142.25;100.00;58004.16;5040250;28;20052;-72
2023/01/06 00:46:21;;;;;;;66.37;34.00;;;;;;;-142.25;100.00;58004.16;5034384;28;20107;-72
2023/01/06 00:48:47;;;;;;;67.90;34.70;;;;;;;-142.25;100.00;58004.16;5039229;28;20052;-71
2023/01/06 00:51:12;;;;;;;;;;;;;;;-142.25;100.00;58004.16;5040665;28;20499;-71
2023/01/06 00:53:38;;;;;;;71.45;35.22;;;;;;;-142.25;100.00;58004.16;5036490;28;20483;-71
2023/01/06 00:56:04;;;;;;;66.75;34.35;;;;;;;-142.25;100.00;58004.16;5021881;28;20056;-72
2023/01/06 00:58:33;;;;;;;72.57;34.93;;;;;;;-142.25;100.00;58004.16;5041722;28;20140;-72
2023/01/06 01:01:06;;;;;;;43.90;33.50;;;;;;;-142.25;100.00;58004.16;5049747;28;20041;-71
2023/01/06 01:03:33;;;;;;;53.97;30.98;;;;;;;-142.25;100.00;58004.16;5041168;28;20048;-71
2023/01/06 01:06:03;;;;;;;76.07;36.80;;;;;;;-142.25;100.00;58004.16;5046206;28;20126;-71
2023/01/06 01:08:29;;;;;;;77.53;36.23;;;;;;;-142.25;100.00;58004.16;5038056;28;20044;-71
2023/01/06 01:11:08;;;;;;;78.37;36.67;;;;;;;-142.25;100.00;58004.16;5043922;28;20057;-71
2023/01/06 01:13:35;;;;;;;79.50;36.73;;;;;;;-142.25;100.00;58004.16;5038357;28;20089;-71
2023/01/06 01:16:08;;;;;;;84.70;38.30;;;;;;;-142.25;100.00;58004.16;5036672;28;20041;-71
2023/01/06 01:18:34;;;;;;;76.17;37.07;;;;;;;-142.25;100.00;58004.16;5031424;28;20209;-71
2023/01/06 01:21:00;;;;;;;78.03;37.13;;;;;;;-142.25;100.00;58004.16;5032165;28;20077;-71
2023/01/06 01:23:25;;;;;;;79.40;37.03;;;;;;;-142.25;100.00;58004.16;5034386;28;20488;-71
2023/01/06 01:25:55;;;;;;;78.70;37.10;;;;;;;-142.25;100.00;58004.16;5039826;28;20127;-71
2023/01/06 01:28:21;;;;;;;75.67;36.10;;;;;;;-142.25;100.00;58004.16;5036478;28;20048;-71
2023/01/06 01:30:47;;;;;;;75.10;36.03;;;;;;;-142.25;100.00;58004.16;5037634;28;20147;-71
2023/01/06 01:33:12;;;;;;;75.83;36.20;;;;;;;-142.25;100.00;58004.16;5037106;28;20041;-72
2023/01/06 01:35:38;;;;;;;72.97;35.40;;;;;;;-142.25;100.00;58004.16;5036693;28;20045;-73
2023/01/06 01:38:04;;;;;;;72.88;35.70;;;;;;;-142.25;100.00;58004.16;5034449;28;20052;-71
2023/01/06 01:40:29;;;;;;;;;;;;;;;-142.25;100.00;58004.16;5037769;28;20037;-71
2023/01/06 01:42:55;;;;;;;74.73;35.40;;;;;;;-142.25;100.00;58004.16;5036177;28;20834;-71
2023/01/06 01:45:22;;;;;;;66.97;33.80;;;;;;;-142.25;100.00;58004.16;5037461;28;20486;-71
2023/01/06 01:47:57;;;;;;;64.32;33.90;;;;;;;-142.25;100.00;58004.16;5036649;28;20091;-71
2023/01/06 01:50:33;;;;;;;72.28;34.92;;;;;;;-142.25;100.00;58004.16;5040658;28;20106;-71
2023/01/06 01:53:09;;;;;;;77.67;35.87;;;;;;;-142.25;100.00;58004.16;5019178;28;20121;-71
2023/01/06 01:55:36;;;;;;;76.47;35.90;;;;;;;-142.25;100.00;58004.16;5038557;28;20049;-71
2023/01/06 01:58:23;;;;;;;70.13;34.27;;;;;;;-142.25;100.00;58004.16;5043021;28;20061;-75
2023/01/06 02:00:50;;;;;;;71.13;34.67;;;;;;;-142.25;100.00;58004.16;5039324;28;20626;-71
2023/01/06 02:03:18;;;;;;;67.07;34.00;;;;;;;-142.25;100.00;58004.16;5036885;28;20084;-71
2023/01/06 02:05:51;;;;;;;65.43;33.17;;;;;;;-142.25;100.00;58004.16;5050273;28;20045;-71
2023/01/06 02:08:27;;;;;;;65.28;33.20;;;;;;;-142.25;100.00;58004.16;5043672;28;20107;-71
2023/01/06 02:10:53;;;;;;;66.17;33.83;;;;;;;-142.25;100.00;58004.16;5036431;28;20045;-71
2023/01/06 02:13:19;;;;;;;64.68;33.08;;;;;;;-142.25;100.00;58004.16;5024940;28;20056;-70
2023/01/06 02:15:45;;;;;;;67.13;34.90;;;;;;;-142.25;100.00;58004.16;5031765;28;20616;-71
2023/01/06 02:18:21;;;;;;;68.18;34.13;;;;;;;-142.25;100.00;58004.16;5038533;28;20184;-72
2023/01/06 02:20:53;;;;;;;;;;;;;;;-142.25;100.00;58004.16;5036853;28;20059;-71
2023/01/06 02:23:23;;;;;;;78.68;36.70;;;;;;;-142.25;100.00;58004.16;5033317;28;20558;-71
2023/01/06 02:25:55;;;;;;;68.70;34.05;;;;;;;-142.25;100.00;58004.16;5047537;28;20142;-71
2023/01/06 02:29:00;;;;;;;70.18;35.17;;;;;;;-142.25;100.00;58004.16;5042311;28;20057;-71
2023/01/06 02:31:46;;;;;;;;;;;;;;;-142.25;100.00;58004.16;5036464;28;20396;-71
2023/01/06 02:34:40;;;;;;;71.80;34.70;;;;;;;-142.25;100.00;58004.16;5024858;28;20492;-71
2023/01/06 02:37:28;;;;;;;67.67;34.60;;;;;;;-142.25;100.00;58004.16;5035772;28;20037;-71
2023/01/06 02:39:59;;;;;;;70.33;34.67;;;;;;;-142.25;100.00;58004.16;5036982;28;20037;-71
2023/01/06 02:42:59;;;;;;;67.28;33.75;;;;;;;-142.25;100.00;58004.16;5034792;28;20048;-70
2023/01/06 02:45:37;;;;;;;68.97;34.60;;;;;;;-142.25;100.00;58004.16;5036796;28;20041;-71
2023/01/06 02:48:11;;;;;;;72.55;35.80;;;;;;;-142.25;100.00;58004.16;5036642;28;20040;-71
2023/01/06 02:50:43;;;;;;;75.70;35.50;;;;;;;-142.25;100.00;58004.16;5033536;28;20488;-70
2023/01/06 02:53:16;;;;;;;72.72;34.85;;;;;;;-142.25;100.00;58004.16;5035154;28;20144;-70
2023/01/06 02:55:54;;;;;;;72.17;35.10;;;;;;;-142.25;100.00;58004.16;5040181;28;20103;-70
2023/01/06 02:58:23;;;;;;;71.43;34.22;;;;;;;-142.25;100.00;58004.16;5025477;28;20057;-71
2023/01/06 03:00:56;;;;;;;71.93;35.03;;;;;;;-142.25;100.00;58004.16;5050641;28;20051;-71
2023/01/06 03:03:25;;;;;;;70.47;34.30;;;;;;;-142.25;100.00;58004.16;5038275;28;20029;-71
2023/01/06 03:05:57;;;;;;;71.70;34.17;;;;;;;-142.25;100.00;58004.16;5044700;28;20673;-71
2023/01/06 03:08:27;;;;;;;69.95;34.42;;;;;;;-142.25;100.00;58004.16;5036317;28;20047;-71
2023/01/06 03:10:58;;;;;;;69.37;34.60;;;;;;;-142.25;100.00;58004.16;5052241;28;20060;-71
2023/01/06 03:13:36;;;;;;;67.17;34.17;;;;;;;-142.25;100.00;58004.16;5035725;28;20040;-71
2023/01/06 03:16:02;;;;;;;67.70;33.73;;;;;;;-142.25;100.00;58004.16;5034950;28;20158;-71
2023/01/06 03:18:30;;;;;;;74.73;35.27;;;;;;;-142.25;100.00;58004.16;5038228;28;20137;-71
2023/01/06 03:21:00;;;;;;;72.77;34.93;;;;;;;-142.25;100.00;58004.16;5036794;28;20132;-71
2023/01/06 03:23:26;;;;;;;69.87;33.77;;;;;;;-142.25;100.00;58004.16;5038719;28;20186;-71
2023/01/06 03:25:52;;;;;;;70.70;35.13;;;;;;;-142.25;100.00;58004.16;5039678;28;20894;-71
2023/01/06 03:28:21;;;;;;;72.87;34.87;;;;;;;-142.25;100.00;58004.16;5052130;28;20046;-71
2023/01/06 03:31:26;;;;;;;68.43;33.87;;;;;;;-142.25;100.00;58004.16;5040348;28;20080;-72
2023/01/06 03:34:03;;;;;;;68.17;33.67;;;;;;;-142.25;100.00;58004.16;4995853;28;20049;-71
2023/01/06 03:36:51;;;;;;;69.63;34.00;;;;;;;-142.25;100.00;58004.16;5046107;28;20044;-70
2023/01/06 03:39:28;;;;;;;69.10;33.93;;;;;;;-142.25;100.00;58004.16;5045144;28;20045;-71
2023/01/06 03:45:18;;;;;;;70.07;34.80;;;;;;;-142.25;100.00;58004.16;5035259;28;20056;-72
2023/01/06 03:47:53;;;;;;;68.07;34.60;;;;;;;-142.25;100.00;58004.16;5031037;28;20041;-72
2023/01/06 03:50:24;;;;;;;66.20;33.33;;;;;;;-142.25;100.00;58004.16;5038080;28;20045;-71
2023/01/06 03:53:20;;;;;;;66.07;33.37;;;;;;;-142.25;100.00;58004.16;5036829;28;20068;-70
2023/01/06 03:55:50;;;;;;;;;;;;;;;-142.25;100.00;58004.16;5028367;28;20114;-71
2023/01/06 03:58:18;;;;;;;66.43;33.85;;;;;;;-142.25;100.00;58004.16;5038265;28;19921;-70
2023/01/06 04:00:45;;;;;;;65.83;33.03;;;;;;;-142.25;100.00;58004.16;5033197;28;20084;-71
2023/01/06 04:03:13;;;;;;;65.78;33.50;;;;;;;-142.25;100.00;58004.16;5035611;28;20460;-70
2023/01/06 04:05:40;;;;;;;66.20;33.25;;;;;;;-142.25;100.00;58004.16;5036698;28;20492;-72
2023/01/06 04:08:06;;;;;;;66.30;33.80;;;;;;;-142.25;100.00;58004.16;5043720;28;20506;-71
2023/01/06 04:10:33;;;;;;;63.65;32.38;;;;;;;-142.25;100.00;58004.16;5044723;28;20107;-70
2023/01/06 04:12:59;;;;;;;64.53;33.40;;;;;;;-142.25;100.00;58004.16;5044978;28;20599;-71
2023/01/06 04:15:29;;;;;;;66.30;33.27;;;;;;;-142.25;100.00;58004.16;5043720;28;20512;-71
2023/01/06 04:17:56;;;;;;;66.80;33.27;;;;;;;-142.25;100.00;58004.16;5035018;28;20419;-71
2023/01/06 04:20:28;;;;;;;66.80;33.77;;;;;;;-142.25;100.00;58004.16;5035690;28;20598;-71
2023/01/06 04:23:03;;;;;;;64.90;32.87;;;;;;;-142.25;100.00;58004.16;5044710;28;20450;-71
2023/01/06 04:25:33;;;;;;;65.90;32.97;;;;;;;-142.25;100.00;58004.16;5045245;28;20134;-72
2023/01/06 04:28:07;;;;;;;68.30;34.17;;;;;;;-142.25;100.00;58004.16;5038063;28;20045;-72
2023/01/06 04:30:33;;;;;;;71.87;34.57;;;;;;;-142.25;100.00;58004.16;5035710;28;20578;-72
2023/01/06 04:32:59;;;;;;;69.87;34.07;;;;;;;-142.25;100.00;58004.16;5038785;28;20064;-72
2023/01/06 04:35:25;;;;;;;68.90;34.63;;;;;;;-142.25;100.00;58004.16;5042283;28;20128;-71
2023/01/06 04:37:51;;;;;;;68.67;34.33;;;;;;;-142.25;100.00;58004.16;5036382;28;20072;-71
2023/01/06 04:40:16;;;;;;;68.90;34.17;;;;;;;-142.25;100.00;58004.16;5036271;28;20029;-70
2023/01/06 04:45:26;;;;;;;70.07;34.50;;;;;;;-142.25;100.00;58004.16;5038132;28;20064;-70
2023/01/06 04:47:51;;;;;;;69.17;34.10;;;;;;;-142.25;100.00;58004.16;5040721;28;20033;-70
2023/01/06 04:50:17;;;;;;;69.80;34.40;;;;;;;-142.25;100.00;58004.16;5035903;28;20045;-70
2023/01/06 04:52:42;;;;;;;69.20;34.43;;;;;;;-142.25;100.00;58004.16;5036993;28;20033;-70
2023/01/06 04:55:08;;;;;;;68.33;34.00;;;;;;;-142.25;100.00;58004.16;5035427;28;20080;-70
2023/01/06 04:57:34;;;;;;;67.30;33.97;;;;;;;-142.25;100.00;58004.16;5034765;28;20056;-72
2023/01/06 04:59:59;;;;;;;66.87;33.87;;;;;;;-142.25;100.00;58004.16;5037419;28;20072;-72
2023/01/06 05:02:25;;;;;;;66.50;33.40;;;;;;;-142.25;100.00;58004.16;5036577;28;20459;-71
2023/01/06 05:04:51;;;;;;;66.57;33.77;;;;;;;-142.25;100.00;58004.16;5039429;28;20135;-71
2023/01/06 05:07:16;;;;;;;66.17;34.10;;;;;;;-142.25;100.00;58004.16;5037239;28;20087;-71
2023/01/06 05:09:42;;;;;;;67.23;33.73;;;;;;;-142.25;100.00;58004.16;5039439;28;20040;-71
2023/01/06 05:12:07;;;;;;;80.57;36.77;;;;;;;-142.25;100.00;58004.16;5036974;28;20622;-71
2023/01/06 05:14:33;;;;;;;77.00;36.00;;;;;;;-142.25;100.00;58004.16;5037092;28;20045;-71
2023/01/06 05:16:59;;;;;;;66.50;33.50;;;;;;;-142.25;100.00;58004.16;5033485;28;20053;-71
2023/01/06 05:19:24;;;;;;;64.70;32.97;;;;;;;-142.25;100.00;58004.16;5037817;28;20041;-71
2023/01/06 05:21:50;;;;;;;77.17;35.83;;;;;;;-142.25;100.00;58004.16;5036500;28;20417;-71
2023/01/06 05:24:16;;;;;;;65.33;33.73;;;;;;;-142.25;100.00;58004.16;5036481;28;20037;-70
2023/01/06 05:26:41;;;;;;;65.00;32.67;;;;;;;-142.25;100.00;58004.16;5034556;28;20478;-71
2023/01/06 05:29:11;;;;;;;75.67;35.50;;;;;;;-142.25;100.00;58004.16;5036541;28;20961;-71
2023/01/06 05:31:37;;;;;;;65.67;33.63;;;;;;;-142.25;100.00;58004.16;5035495;28;20072;-70
2023/01/06 05:34:02;;;;;;;70.30;35.23;;;;;;;-142.25;100.00;58004.16;5038700;28;20371;-72
2023/01/06 05:36:28;;;;;;;74.63;35.07;;;;;;;-142.25;100.00;58004.16;5037070;28;20057;-69
2023/01/06 05:38:54;;;;;;;81.40;36.57;;;;;;;-142.25;100.00;58004.16;5036227;28;20039;-69
2023/01/06 05:41:20;;;;;;;84.83;38.40;;;;;;;-142.25;100.00;58004.16;5036511;28;20045;-70
2023/01/06 05:43:46;;;;;;;81.00;37.40;;;;;;;-142.25;100.00;58004.16;5030315;28;20522;-72
2023/01/06 05:46:11;;;;;;;75.63;35.23;;;;;;;-142.25;100.00;58004.16;5034437;28;20454;-71
2023/01/06 05:48:38;;;;;;;76.27;35.77;;;;;;;-142.25;100.00;58004.16;5039132;28;20483;-71
2023/01/06 05:51:06;;;;;;;69.27;33.63;;;;;;;-142.25;100.00;58004.16;5037787;28;20103;-72
2023/01/06 05:53:34;;;;;;;76.30;36.07;;;;;;;-142.25;100.00;58004.16;5036414;28;20080;-72
2023/01/06 05:56:04;;;;;;;76.07;35.33;;;;;;;-142.25;100.00;58004.16;5035164;28;20537;-69
2023/01/06 05:58:32;;;;;;;74.80;35.17;;;;;;;-142.25;100.00;58004.16;5035988;28;20056;-72
2023/01/06 06:00:59;;;;;;;72.57;35.10;;;;;;;-142.25;100.00;58004.16;5034858;28;20645;-71
2023/01/06 06:03:24;;;;;;;73.57;35.40;;;;;;;-142.25;100.00;58004.16;5036325;28;20108;-71
2023/01/06 06:05:50;;;;;;;70.90;35.00;;;;;;;-142.25;100.00;58004.16;5029954;28;20140;-71
2023/01/06 06:08:17;;;;;;;67.57;33.40;;;;;;;-142.25;100.00;58004.16;5031183;28;20475;-70
2023/01/06 06:10:42;;;;;;;67.53;34.50;;;;;;;-142.25;100.00;58004.16;5039712;28;20047;-70
2023/01/06 06:13:08;;;;;;;70.00;34.05;;;;;;;-142.25;100.00;58004.16;5033031;28;20034;-70
2023/01/06 06:15:33;;;;;;;69.20;33.87;;;;;;;-142.25;100.00;58004.16;5034987;28;20174;-70
2023/01/06 06:18:03;;;;;;;68.40;33.77;;;;;;;-142.25;100.00;58004.16;5036366;28;20056;-70
2023/01/06 06:20:29;;;;;;;71.27;34.57;;;;;;;-142.25;100.00;58004.16;5034342;28;20131;-72
2023/01/06 06:22:55;;;;;;;69.88;35.42;;;;;;;-142.25;100.00;58004.16;5035782;28;20049;-70
2023/01/06 06:25:21;;;;;;;68.95;34.05;;;;;;;-142.25;100.00;58004.16;5035162;28;20118;-71
2023/01/06 06:27:46;;;;;;;66.53;33.43;;;;;;;-142.25;100.00;58004.16;5034295;28;20148;-70
2023/01/06 06:30:12;;;;;;;67.70;34.00;;;;;;;-142.25;100.00;58004.16;5036720;28;20041;-71
2023/01/06 06:32:38;;;;;;;66.78;33.92;;;;;;;-142.25;100.00;58004.16;5032575;28;20045;-70
2023/01/06 06:35:04;;;;;;;68.83;35.73;;;;;;;-142.25;100.00;58004.16;5034152;28;20666;-70
2023/01/06 06:37:30;;;;;;;64.85;32.90;;;;;;;-142.25;100.00;58004.16;5034400;28;20049;-71
2023/01/06 06:39:55;;;;;;;71.22;34.42;;;;;;;-142.25;100.00;58004.16;5038348;28;20053;-71
2023/01/06 06:42:21;;;;;;;68.10;33.90;;;;;;;-142.25;100.00;58004.16;5038944;28;20435;-71
2023/01/06 06:44:46;;;;;;;65.53;33.70;;;;;;;-142.25;100.00;58004.16;5038798;28;20943;-72
2023/01/06 06:47:13;;;;;;;63.78;32.75;;;;;;;-142.25;100.00;58004.16;5038820;28;20411;-66
2023/01/06 06:49:38;;;;;;;62.28;32.70;;;;;;;-142.25;100.00;58004.16;5039379;28;20166;-67
2023/01/06 06:52:04;;;;;;;62.97;33.22;;;;;;;-142.25;100.00;58004.16;5034577;28;20530;-68
2023/01/06 06:54:29;;;;;;;63.53;32.80;;;;;;;-142.25;100.00;58004.16;5041118;28;20515;-68
2023/01/06 06:56:56;;;;;;;61.75;32.33;;;;;;;-142.25;100.00;58004.16;5040136;28;20419;-69
2023/01/06 06:59:21;;;;;;;61.00;31.85;;;;;;;-142.25;100.00;58004.16;5040677;28;20044;-68
2023/01/06 07:01:47;;;;;;;64.07;32.85;;;;;;;-142.25;100.00;58004.16;5038593;28;20032;-69
2023/01/06 07:04:12;;;;;;;64.25;33.05;;;;;;;-142.25;100.00;58004.16;5037225;28;20056;-69
2023/01/06 07:06:38;;;;;;;68.63;34.03;;;;;;;-142.25;100.00;58004.16;5038281;28;20052;-69
2023/01/06 07:09:04;;;;;;;74.27;35.83;;;;;;;-142.25;100.00;58004.16;5033264;28;20047;-69
2023/01/06 07:11:30;;;;;;;76.27;36.37;;;;;;;-142.25;100.00;58004.16;5038862;28;20162;-68
2023/01/06 07:13:55;;;;;;;73.47;35.67;;;;;;;-142.25;100.00;58004.16;5036446;28;20024;-68
2023/01/06 07:16:24;;;;;;;74.13;35.30;;;;;;;-142.25;100.00;58004.16;5038058;28;20099;-69
2023/01/06 07:18:49;;;;;;;71.23;34.33;;;;;;;-142.25;100.00;58004.16;5038605;28;20442;-68
2023/01/06 07:21:15;;;;;;;71.23;34.70;;;;;;;-142.25;100.00;58004.16;5035413;28;20057;-68
2023/01/06 07:23:41;;;;;;;69.93;35.13;;;;;;;-142.25;100.00;58004.16;5036629;28;20041;-67
2023/01/06 07:26:06;;;;;;;71.40;34.93;;;;;;;-142.25;100.00;58004.16;5038035;28;20444;-67
2023/01/06 07:28:33;;;;;;;72.13;34.97;;;;;;;-142.25;100.00;58004.16;5038011;28;20951;-66
2023/01/06 07:30:59;;;;;;;72.03;34.87;;;;;;;-142.25;100.00;58004.16;5038319;28;20033;-66
2023/01/06 07:33:24;;;;;;;72.80;35.00;;;;;;;-142.25;100.00;58004.16;5036132;28;20048;-66
2023/01/06 07:35:54;;;;;;;70.47;34.03;;;;;;;-142.25;100.00;58004.16;5036401;28;20803;-61
2023/01/06 07:38:21;;;;;;;69.33;34.27;;;;;;;-142.25;100.00;58004.16;5035497;28;20234;-61
2023/01/06 07:40:47;;;;;;;69.97;34.67;;;;;;;-142.25;100.00;58004.16;5036339;28;20488;-63
2023/01/06 07:43:12;;;;;;;71.03;35.07;;;;;;;-142.25;100.00;58004.16;5034601;28;20071;-61
2023/01/06 07:45:38;;;;;;;69.57;35.23;;;;;;;-142.25;100.00;58004.16;5032708;28;20053;-62
2023/01/06 07:48:04;;;;;;;68.30;34.80;;;;;;;-142.25;100.00;58004.16;5032871;28;20056;-62
2023/01/06 07:50:31;;;;;;;66.87;34.03;;;;;;;-142.25;100.00;58004.16;5032683;28;20129;-64
2023/01/06 07:52:58;;;;;;;65.97;33.67;;;;;;;-142.25;100.00;58004.16;5030579;28;20099;-62
2023/01/06 07:55:24;;;;;;;64.75;33.05;;;;;;;-142.25;100.00;58004.16;5034488;28;20483;-62
2023/01/06 07:57:50;;;;;;;64.00;32.85;;;;;;;-142.25;100.00;58004.16;5034421;28;20057;-64
2023/01/06 08:00:16;;;;;;;63.10;32.63;;;;;;;-142.25;100.00;58004.16;5034510;28;20068;-64
2023/01/06 08:02:41;;;;;;;74.75;35.60;;;;;;;-142.25;100.00;58004.16;5035071;28;20037;-64
2023/01/06 08:05:07;;;;;;;72.57;34.93;;;;;;;-142.25;100.00;58004.16;5035982;28;20139;-64
2023/01/06 08:07:33;;;;;;;69.67;34.50;;;;;;;-142.25;100.00;58004.16;5035770;28;20033;-64
2023/01/06 08:09:59;;;;;;;65.60;33.25;;;;;;;-142.25;100.00;58004.16;5035294;28;20029;-64
2023/01/06 08:12:25;;;;;;;64.88;33.03;;;;;;;-142.25;100.00;58004.16;5036002;28;20061;-63
2023/01/06 08:14:50;;;;;;;64.63;33.70;;;;;;;-142.25;100.00;58004.16;5032228;28;20399;-64
2023/01/06 08:17:16;;;;;;;63.97;32.88;;;;;;;-142.25;100.00;58004.16;5019947;28;20046;-64
2023/01/06 08:19:42;;;;;;;64.93;33.50;;;;;;;-142.25;100.00;58004.16;5035118;28;20089;-63
2023/01/06 08:22:07;;;;;;;65.77;34.73;;;;;;;-142.25;100.00;58004.16;5032811;28;20510;-65
2023/01/06 08:24:34;;;;;;;64.95;34.05;;;;;;;-142.25;100.00;58004.16;5032411;28;20041;-64
2023/01/06 08:27:00;;;;;;;63.30;33.33;;;;;;;-142.25;100.00;58004.16;5035030;28;20424;-65
2023/01/06 08:29:25;;;;;;;64.43;33.63;;;;;;;-142.25;100.00;58004.16;5032818;28;20543;-70
2023/01/06 08:31:51;;;;;;;62.65;32.90;;;;;;;-142.25;100.00;58004.16;5033236;28;20117;-71
2023/01/06 08:34:17;;;;;;;62.65;33.60;;;;;;;-142.25;100.00;58004.16;5035253;28;20457;-70
2023/01/06 08:36:44;;;;;;;63.63;33.97;;;;;;;-142.25;100.00;58004.16;5033922;28;20047;-70
2023/01/06 08:39:11;;;;;;;63.80;35.60;;;;;;;-142.25;100.00;58004.16;5030037;28;20704;-72
2023/01/06 08:41:38;;;;;;;62.92;34.08;;;;;;;-142.25;100.00;58004.16;5024125;28;20506;-69
2023/01/06 08:44:05;;;;;;;62.83;33.63;;;;;;;-142.25;100.00;58004.16;5033486;28;20041;-72
2023/01/06 08:46:31;;;;;;;64.17;33.77;;;;;;;-142.25;100.00;58004.16;5031247;28;20076;-71
2023/01/06 08:48:57;;;;;;;63.88;33.25;;;;;;;-142.25;100.00;58004.16;5031965;28;20132;-69
2023/01/06 08:51:23;;;;;;;67.53;34.53;;;;;;;-142.25;100.00;58004.16;5034251;28;20049;-71
2023/01/06 08:53:50;;;;;;;64.83;33.23;;;;;;;-142.25;100.00;58004.16;5036882;28;20038;-70
2023/01/06 08:56:28;;;;;;;66.20;33.90;;;;;;;-142.25;100.00;58004.16;5036256;28;20045;-70
2023/01/06 08:58:58;;;;;;;79.97;37.63;;;;;;;-142.25;100.00;58004.16;5035179;28;20065;-67
2023/01/06 09:01:27;;;;;;;77.87;37.20;;;;;;;-142.25;100.00;58004.16;5032293;28;20059;-70
2023/01/06 09:03:53;;;;;;;71.40;35.90;;;;;;;-142.25;100.00;58004.16;5034615;28;20067;-70
2023/01/06 09:06:20;;;;;;;75.03;36.83;;;;;;;-142.25;100.00;58004.16;5033740;28;20048;-68
2023/01/06 09:08:47;;;;;;;74.17;36.23;;;;;;;-142.25;100.00;58004.16;5036133;28;20136;-68
2023/01/06 09:11:14;;;;;;;70.67;35.13;;;;;;;-142.25;100.00;58004.16;5035939;28;20052;-69
2023/01/06 09:13:40;;;;;;;67.30;34.67;;;;;;;-142.25;100.00;58004.16;5036453;28;20056;-70
2023/01/06 09:16:07;;;;;;;64.68;33.75;;;;;;;-142.25;100.00;58004.16;5039387;28;20057;-68
2023/01/06 09:18:32;;;;;;;65.68;34.33;;;;;;;-142.25;100.00;58004.16;5036554;28;20036;-70
2023/01/06 09:20:58;;;;;;;66.50;34.88;;;;;;;-142.25;100.00;58004.16;5039037;28;20041;-67
2023/01/06 09:23:24;;;;;;;67.30;35.23;;;;;;;-142.25;100.00;58004.16;5035465;28;20048;-69
2023/01/06 09:25:49;;;;;;;66.43;34.57;;;;;;;-142.25;100.00;58004.16;5036493;28;20091;-69
2023/01/06 09:28:15;;;;;;;66.57;35.20;;;;;;;-142.25;100.00;58004.16;5040955;28;20045;-68
2023/01/06 09:30:40;;;;;;;67.43;35.17;;;;;;;-142.25;100.00;58004.16;5036471;28;20269;-69
2023/01/06 09:33:06;;;;;;;66.87;34.57;;;;;;;-142.25;100.00;58004.16;5033780;28;20048;-68
2023/01/06 09:35:32;;;;;;;68.50;35.90;;;;;;;-142.25;100.00;58004.16;5034640;28;20495;-68
2023/01/06 09:37:58;;;;;;;75.80;37.53;;;;;;;-142.25;100.00;58004.16;5034583;28;20049;-69
2023/01/06 09:40:58;;;;;;;80.53;37.13;;;;;;;-142.25;100.00;58004.16;5036398;28;20034;-69
2023/01/06 09:43:55;;;;;;;78.93;38.97;;;;;;;-142.25;100.00;58004.16;5031235;28;20459;-68
2023/01/06 09:46:27;;;;;;;73.87;36.30;;;;;;;-142.25;100.00;58004.16;5031152;28;20059;-71
2023/01/06 09:49:38;;;;;;;69.70;36.07;;;;;;;-142.25;100.00;58004.16;5046970;28;20048;-67
2023/01/06 09:52:15;;;;;;;74.13;37.37;;;;;;;-142.25;100.00;58004.16;5012427;28;20057;-67
2023/01/06 09:54:56;;;;;;;74.43;36.43;;;;;;;-142.25;100.00;58004.16;5035543;28;20479;-67
2023/01/06 09:57:48;;;;;;;75.70;36.70;;;;;;;-142.25;100.00;58004.16;5035211;28;20474;-68
2023/01/06 10:00:32;;;;;;;71.43;37.33;;;;;;;-142.25;100.00;58004.16;5034685;28;20037;-67
2023/01/06 10:02:58;;;;;;;70.47;36.57;;;;;;;-142.25;100.00;58004.16;5029879;28;20199;-68
2023/01/06 10:05:31;;;;;;;74.53;37.07;;;;;;;-142.25;100.00;58004.16;5031843;28;20040;-69
2023/01/06 10:08:25;;;;;;;74.60;37.40;;;;;;;-142.25;100.00;58004.16;5031119;28;20045;-68
2023/01/06 10:11:09;;;;;;;72.17;35.93;;;;;;;-142.25;100.00;58004.16;5032259;28;20062;-66
2023/01/06 10:14:11;;;;;;;71.40;38.90;;;;;;;-142.25;100.00;58004.16;5032608;28;20037;-67
2023/01/06 10:16:48;;;;;;;73.60;36.23;;;;;;;-142.25;100.00;58004.16;5032903;28;20591;-68
2023/01/06 10:19:14;;;;;;;73.50;36.63;;;;;;;-142.25;100.00;58004.16;5034592;28;20044;-68
2023/01/06 10:21:56;;;;;;;71.90;36.53;;;;;;;-142.25;100.00;58004.16;5033651;28;20126;-67
2023/01/06 10:24:30;;;;;;;93.33;40.87;;;;;;;-142.25;100.00;58004.16;5050701;28;20037;-68
2023/01/06 10:27:00;;;;;;;96.80;42.07;;;;;;;-142.25;100.00;58004.16;5033530;28;20651;-68
2023/01/06 10:29:36;;;;;;;93.27;40.67;;;;;;;-142.25;100.00;58004.16;5035461;28;20076;-67
2023/01/06 10:32:05;;;;;;;93.90;42.40;;;;;;;-142.25;100.00;58004.16;5032749;28;20045;-68
2023/01/06 10:34:34;;;;;;;88.77;40.70;;;;;;;-142.25;100.00;58004.16;5026274;28;20049;-67
2023/01/06 10:37:09;;;;;;;91.10;41.23;;;;;;;-142.25;100.00;58004.16;5031339;28;20118;-68
2023/01/06 10:39:36;;;;;;;90.73;40.23;;;;;;;-142.25;100.00;58004.16;5035444;28;20383;-68
2023/01/06 10:44:55;;;;;;;90.83;40.93;;;;;;;-142.25;100.00;58004.16;5036368;28;20041;-68
2023/01/06 10:47:32;;;;;;;92.13;40.47;;;;;;;-142.25;100.00;58004.16;5032690;28;20056;-69
2023/01/06 10:49:58;;;;;;;90.83;40.30;;;;;;;-142.25;100.00;58004.16;5033780;28;20048;-69
2023/01/06 10:52:25;;;;;;;90.87;40.97;;;;;;;-142.25;100.00;58004.16;5034857;28;20049;-68
2023/01/06 10:54:55;;;;;;;90.93;41.17;;;;;;;-142.25;100.00;58004.16;5027553;28;20136;-68
2023/01/06 10:57:29;;;;;;;91.17;40.93;;;;;;;-142.25;100.00;58004.16;5030762;28;20052;-68
2023/01/06 11:00:14;;;;;;;90.97;41.10;;;;;;;-142.25;100.00;58004.16;5034061;28;20455;-67
2023/01/06 11:02:46;;;;;;;98.13;43.60;;;;;;;-142.25;100.00;58004.16;5033982;28;20500;-69
2023/01/06 11:05:13;;;;;;;96.70;42.17;;;;;;;-142.25;100.00;58004.16;5035177;28;20394;-68
2023/01/06 11:08:06;;;;;;;92.37;45.03;;;;;;;-142.25;100.00;58004.16;5032602;28;20519;-69
2023/01/06 11:10:51;;;;;;;88.17;40.17;;;;;;;-142.25;100.00;58004.16;5033835;28;20553;-69
2023/01/06 11:13:26;;;;;;;87.03;41.03;;;;;;;-142.25;100.00;58004.16;5033918;28;20079;-67
2023/01/06 11:15:53;;;;;;;87.57;41.13;;;;;;;-142.25;100.00;58004.16;5030821;28;20045;-67